sensor_id;sensor_type;location;lat;lon;timestamp;P1;P2;P0
50587;PMS7003;36546;50.516;30.826;2023-04-25T00:00:45;12.20;11.70;8.80
50587;PMS7003;36546;50.516;30.826;2023-04-25T00:01:48;14.70;13.50;10.60
50587;PMS7003;36546;50.516;30.826;2023-04-25T00:02:52;13.10;12.30;9.10
50587;PMS7003;36546;50.516;30.826;2023-04-25T00:03:56;13.00;12.64;9.27
50587;PMS7003;36546;50.516;30.826;2023-04-25T00:05:01;15.30;12.60;9.10
50587;PMS7003;36546;50.516;30.826;2023-04-25T00:06:05;14.00;11.30;9.00
50587;PMS7003;36546;50.516;30.826;2023-04-25T00:07:08;12.90;11.60;8.90
50587;PMS7003;36546;50.516;30.826;2023-04-25T00:08:10;13.30;12.30;9.50
50587;PMS7003;36546;50.516;30.826;2023-04-25T00:09:13;12.09;11.55;8.18
50587;PMS7003;36546;50.516;30.826;2023-04-25T00:10:15;13.80;12.40;9.10
50587;PMS7003;36546;50.516;30.826;2023-04-25T00:11:18;13.90;12.70;9.30
50587;PMS7003;36546;50.516;30.826;2023-04-25T00:12:21;14.40;12.60;8.90
50587;PMS7003;36546;50.516;30.826;2023-04-25T00:13:23;13.40;12.70;9.70
50587;PMS7003;36546;50.516;30.826;2023-04-25T00:14:25;12.40;10.30;7.60
50587;PMS7003;36546;50.516;30.826;2023-04-25T00:15:27;11.50;11.50;9.30
50587;PMS7003;36546;50.516;30.826;2023-04-25T00:16:30;13.90;13.40;10.10
50587;PMS7003;36546;50.516;30.826;2023-04-25T00:17:33;12.20;11.10;9.00
50587;PMS7003;36546;50.516;30.826;2023-04-25T00:18:36;13.30;13.30;10.70
50587;PMS7003;36546;50.516;30.826;2023-04-25T00:19:38;13.40;12.90;10.50
50587;PMS7003;36546;50.516;30.826;2023-04-25T00:20:40;14.30;13.10;10.10
50587;PMS7003;36546;50.516;30.826;2023-04-25T00:21:43;14.20;12.60;10.00
50587;PMS7003;36546;50.516;30.826;2023-04-25T00:22:45;12.70;10.80;8.40
50587;PMS7003;36546;50.516;30.826;2023-04-25T00:25:10;12.90;11.70;8.50
50587;PMS7003;36546;50.516;30.826;2023-04-25T00:26:13;12.20;12.20;9.10
50587;PMS7003;36546;50.516;30.826;2023-04-25T00:27:15;12.60;11.90;9.80
50587;PMS7003;36546;50.516;30.826;2023-04-25T00:28:17;13.00;11.50;8.80
50587;PMS7003;36546;50.516;30.826;2023-04-25T00:29:20;13.00;12.50;9.40
50587;PMS7003;36546;50.516;30.826;2023-04-25T00:30:23;12.60;12.30;9.40
50587;PMS7003;36546;50.516;30.826;2023-04-25T00:31:25;14.70;14.10;10.50
50587;PMS7003;36546;50.516;30.826;2023-04-25T00:32:27;14.00;13.20;9.70
50587;PMS7003;36546;50.516;30.826;2023-04-25T00:33:30;14.60;13.20;10.90
50587;PMS7003;36546;50.516;30.826;2023-04-25T00:34:32;13.00;12.20;9.60
50587;PMS7003;36546;50.516;30.826;2023-04-25T00:35:35;13.90;13.20;9.40
50587;PMS7003;36546;50.516;30.826;2023-04-25T00:36:37;14.91;13.73;10.00
50587;PMS7003;36546;50.516;30.826;2023-04-25T00:37:39;15.10;13.80;10.70
50587;PMS7003;36546;50.516;30.826;2023-04-25T00:38:42;12.50;11.30;9.00
50587;PMS7003;36546;50.516;30.826;2023-04-25T00:39:45;13.10;11.90;9.20
50587;PMS7003;36546;50.516;30.826;2023-04-25T00:40:48;14.40;13.00;9.90
50587;PMS7003;36546;50.516;30.826;2023-04-25T00:41:51;13.00;11.20;9.50
50587;PMS7003;36546;50.516;30.826;2023-04-25T00:42:54;12.60;11.20;8.70
50587;PMS7003;36546;50.516;30.826;2023-04-25T00:43:57;12.80;12.00;9.90
50587;PMS7003;36546;50.516;30.826;2023-04-25T00:45:01;8.09;8.09;6.00
50587;PMS7003;36546;50.516;30.826;2023-04-25T00:46:03;12.40;12.00;9.00
50587;PMS7003;36546;50.516;30.826;2023-04-25T00:47:05;12.10;12.10;10.10
50587;PMS7003;36546;50.516;30.826;2023-04-25T00:48:10;13.60;12.40;8.20
50587;PMS7003;36546;50.516;30.826;2023-04-25T00:49:12;12.10;12.10;9.20
50587;PMS7003;36546;50.516;30.826;2023-04-25T00:50:15;14.10;12.60;9.80
50587;PMS7003;36546;50.516;30.826;2023-04-25T00:51:21;13.60;12.70;9.80
50587;PMS7003;36546;50.516;30.826;2023-04-25T00:52:24;14.40;12.00;8.60
50587;PMS7003;36546;50.516;30.826;2023-04-25T00:53:27;12.36;11.18;8.45
50587;PMS7003;36546;50.516;30.826;2023-04-25T00:54:30;14.90;12.10;9.80
50587;PMS7003;36546;50.516;30.826;2023-04-25T00:55:32;12.50;12.50;9.60
50587;PMS7003;36546;50.516;30.826;2023-04-25T00:56:35;11.80;11.30;8.20
50587;PMS7003;36546;50.516;30.826;2023-04-25T00:57:37;12.80;12.80;10.10
50587;PMS7003;36546;50.516;30.826;2023-04-25T00:58:40;13.82;12.73;9.82
50587;PMS7003;36546;50.516;30.826;2023-04-25T00:59:44;17.50;14.50;10.80
50587;PMS7003;36546;50.516;30.826;2023-04-25T01:00:48;15.30;13.60;9.80
50587;PMS7003;36546;50.516;30.826;2023-04-25T01:01:52;12.80;12.40;8.80
50587;PMS7003;36546;50.516;30.826;2023-04-25T01:02:54;14.10;13.10;10.30
50587;PMS7003;36546;50.516;30.826;2023-04-25T01:03:58;14.70;13.80;10.60
50587;PMS7003;36546;50.516;30.826;2023-04-25T01:05:01;13.60;13.00;10.70
50587;PMS7003;36546;50.516;30.826;2023-04-25T01:06:04;12.90;12.20;9.90
50587;PMS7003;36546;50.516;30.826;2023-04-25T01:07:06;15.60;13.90;10.70
50587;PMS7003;36546;50.516;30.826;2023-04-25T01:08:09;16.50;13.50;10.40
50587;PMS7003;36546;50.516;30.826;2023-04-25T01:09:12;12.90;12.30;10.70
50587;PMS7003;36546;50.516;30.826;2023-04-25T01:10:15;13.30;12.90;10.20
50587;PMS7003;36546;50.516;30.826;2023-04-25T01:11:17;14.30;13.30;10.50
50587;PMS7003;36546;50.516;30.826;2023-04-25T01:12:19;13.36;13.36;10.27
50587;PMS7003;36546;50.516;30.826;2023-04-25T01:13:22;14.10;13.60;10.00
50587;PMS7003;36546;50.516;30.826;2023-04-25T01:14:25;16.64;13.55;10.18
50587;PMS7003;36546;50.516;30.826;2023-04-25T01:15:27;15.60;14.10;10.40
50587;PMS7003;36546;50.516;30.826;2023-04-25T01:16:30;14.40;13.10;10.40
50587;PMS7003;36546;50.516;30.826;2023-04-25T01:17:34;14.20;14.20;10.20
50587;PMS7003;36546;50.516;30.826;2023-04-25T01:18:38;12.73;12.36;10.55
50587;PMS7003;36546;50.516;30.826;2023-04-25T01:19:41;13.20;12.70;10.30
50587;PMS7003;36546;50.516;30.826;2023-04-25T01:20:44;16.00;13.40;10.90
50587;PMS7003;36546;50.516;30.826;2023-04-25T01:21:48;13.20;12.40;9.50
50587;PMS7003;36546;50.516;30.826;2023-04-25T01:22:51;12.00;11.50;10.10
50587;PMS7003;36546;50.516;30.826;2023-04-25T01:23:54;12.70;11.50;8.90
50587;PMS7003;36546;50.516;30.826;2023-04-25T01:24:56;12.80;12.20;9.40
50587;PMS7003;36546;50.516;30.826;2023-04-25T01:25:59;13.60;13.20;10.40
50587;PMS7003;36546;50.516;30.826;2023-04-25T01:27:03;14.80;12.00;9.30
50587;PMS7003;36546;50.516;30.826;2023-04-25T01:28:06;15.45;14.27;10.27
50587;PMS7003;36546;50.516;30.826;2023-04-25T01:29:08;14.30;12.50;9.90
50587;PMS7003;36546;50.516;30.826;2023-04-25T01:30:11;14.36;13.73;10.91
50587;PMS7003;36546;50.516;30.826;2023-04-25T01:31:15;13.00;13.00;10.40
50587;PMS7003;36546;50.516;30.826;2023-04-25T01:32:19;17.30;12.80;10.20
50587;PMS7003;36546;50.516;30.826;2023-04-25T01:33:21;16.09;15.09;10.09
50587;PMS7003;36546;50.516;30.826;2023-04-25T01:34:24;12.70;12.40;8.50
50587;PMS7003;36546;50.516;30.826;2023-04-25T01:35:27;14.64;13.55;10.82
50587;PMS7003;36546;50.516;30.826;2023-04-25T01:36:29;14.50;13.90;11.60
50587;PMS7003;36546;50.516;30.826;2023-04-25T01:37:31;16.50;16.00;10.30
50587;PMS7003;36546;50.516;30.826;2023-04-25T01:38:33;12.33;11.56;8.78
50587;PMS7003;36546;50.516;30.826;2023-04-25T01:39:35;13.10;12.10;9.50
50587;PMS7003;36546;50.516;30.826;2023-04-25T01:40:38;13.73;13.73;10.64
50587;PMS7003;36546;50.516;30.826;2023-04-25T01:41:41;14.50;14.50;11.00
50587;PMS7003;36546;50.516;30.826;2023-04-25T01:42:43;14.30;13.10;9.70
50587;PMS7003;36546;50.516;30.826;2023-04-25T01:43:47;14.90;13.00;10.60
50587;PMS7003;36546;50.516;30.826;2023-04-25T01:44:50;13.20;11.60;10.00
50587;PMS7003;36546;50.516;30.826;2023-04-25T01:45:52;13.60;13.60;11.10
50587;PMS7003;36546;50.516;30.826;2023-04-25T01:46:55;15.40;14.80;11.00
50587;PMS7003;36546;50.516;30.826;2023-04-25T01:47:58;15.30;14.60;11.60
50587;PMS7003;36546;50.516;30.826;2023-04-25T01:49:00;12.20;11.80;10.10
50587;PMS7003;36546;50.516;30.826;2023-04-25T01:50:04;15.80;14.00;11.30
50587;PMS7003;36546;50.516;30.826;2023-04-25T01:51:09;13.20;13.20;11.30
50587;PMS7003;36546;50.516;30.826;2023-04-25T01:52:12;13.55;13.55;10.36
50587;PMS7003;36546;50.516;30.826;2023-04-25T01:53:14;15.20;14.50;10.70
50587;PMS7003;36546;50.516;30.826;2023-04-25T01:54:19;16.30;14.00;11.10
50587;PMS7003;36546;50.516;30.826;2023-04-25T01:55:23;14.50;13.50;11.20
50587;PMS7003;36546;50.516;30.826;2023-04-25T01:56:31;15.20;14.00;11.00
50587;PMS7003;36546;50.516;30.826;2023-04-25T01:57:34;12.20;11.60;8.50
50587;PMS7003;36546;50.516;30.826;2023-04-25T01:58:37;16.00;13.90;10.90
50587;PMS7003;36546;50.516;30.826;2023-04-25T01:59:47;15.70;14.50;11.80
50587;PMS7003;36546;50.516;30.826;2023-04-25T02:00:57;16.10;14.70;11.80
50587;PMS7003;36546;50.516;30.826;2023-04-25T02:02:04;13.80;12.30;10.20
50587;PMS7003;36546;50.516;30.826;2023-04-25T02:03:06;13.90;13.90;10.10
50587;PMS7003;36546;50.516;30.826;2023-04-25T02:04:09;15.00;13.50;11.60
50587;PMS7003;36546;50.516;30.826;2023-04-25T02:05:14;14.40;14.40;11.50
50587;PMS7003;36546;50.516;30.826;2023-04-25T02:06:18;16.70;14.90;11.80
50587;PMS7003;36546;50.516;30.826;2023-04-25T02:07:21;13.90;12.30;8.80
50587;PMS7003;36546;50.516;30.826;2023-04-25T02:08:25;15.70;14.50;11.40
50587;PMS7003;36546;50.516;30.826;2023-04-25T02:09:30;14.80;13.90;10.50
50587;PMS7003;36546;50.516;30.826;2023-04-25T02:10:33;15.60;13.40;10.80
50587;PMS7003;36546;50.516;30.826;2023-04-25T02:11:38;15.40;14.10;11.20
50587;PMS7003;36546;50.516;30.826;2023-04-25T02:12:53;15.10;14.60;11.30
50587;PMS7003;36546;50.516;30.826;2023-04-25T02:14:02;17.90;15.30;12.30
50587;PMS7003;36546;50.516;30.826;2023-04-25T02:15:12;14.50;14.30;10.60
50587;PMS7003;36546;50.516;30.826;2023-04-25T02:16:20;13.60;12.90;10.10
50587;PMS7003;36546;50.516;30.826;2023-04-25T02:17:22;15.70;14.70;12.10
50587;PMS7003;36546;50.516;30.826;2023-04-25T02:18:25;14.70;13.90;11.00
50587;PMS7003;36546;50.516;30.826;2023-04-25T02:19:28;14.60;13.90;11.70
50587;PMS7003;36546;50.516;30.826;2023-04-25T02:20:30;15.70;15.70;11.30
50587;PMS7003;36546;50.516;30.826;2023-04-25T02:21:33;14.60;14.00;12.00
50587;PMS7003;36546;50.516;30.826;2023-04-25T02:22:35;16.10;15.10;11.80
50587;PMS7003;36546;50.516;30.826;2023-04-25T02:23:39;16.80;14.70;10.10
50587;PMS7003;36546;50.516;30.826;2023-04-25T02:24:41;15.40;14.70;11.60
50587;PMS7003;36546;50.516;30.826;2023-04-25T02:25:44;15.00;14.20;11.50
50587;PMS7003;36546;50.516;30.826;2023-04-25T02:26:46;15.60;14.90;11.20
50587;PMS7003;36546;50.516;30.826;2023-04-25T02:27:49;14.10;13.30;10.30
50587;PMS7003;36546;50.516;30.826;2023-04-25T02:28:51;15.00;14.10;11.30
50587;PMS7003;36546;50.516;30.826;2023-04-25T02:29:54;15.50;14.30;11.80
50587;PMS7003;36546;50.516;30.826;2023-04-25T02:30:56;14.00;13.40;10.00
50587;PMS7003;36546;50.516;30.826;2023-04-25T02:31:59;16.20;14.70;11.20
50587;PMS7003;36546;50.516;30.826;2023-04-25T02:33:01;13.70;13.70;10.00
50587;PMS7003;36546;50.516;30.826;2023-04-25T02:34:04;15.60;14.90;12.20
50587;PMS7003;36546;50.516;30.826;2023-04-25T02:35:09;16.10;14.20;10.00
50587;PMS7003;36546;50.516;30.826;2023-04-25T02:36:12;15.45;13.55;10.27
50587;PMS7003;36546;50.516;30.826;2023-04-25T02:37:16;17.00;15.50;10.20
50587;PMS7003;36546;50.516;30.826;2023-04-25T02:38:20;16.20;15.90;12.70
50587;PMS7003;36546;50.516;30.826;2023-04-25T02:39:22;15.40;14.40;11.70
50587;PMS7003;36546;50.516;30.826;2023-04-25T02:40:25;14.30;13.10;10.00
50587;PMS7003;36546;50.516;30.826;2023-04-25T02:41:29;15.10;13.60;11.40
50587;PMS7003;36546;50.516;30.826;2023-04-25T02:42:32;16.40;14.90;11.90
50587;PMS7003;36546;50.516;30.826;2023-04-25T02:43:35;17.10;14.90;11.60
50587;PMS7003;36546;50.516;30.826;2023-04-25T02:44:37;14.50;13.90;11.00
50587;PMS7003;36546;50.516;30.826;2023-04-25T02:45:40;16.27;13.55;11.36
50587;PMS7003;36546;50.516;30.826;2023-04-25T02:46:42;15.10;14.10;11.30
50587;PMS7003;36546;50.516;30.826;2023-04-25T02:47:44;16.90;15.30;12.30
50587;PMS7003;36546;50.516;30.826;2023-04-25T02:48:46;14.50;13.20;10.60
50587;PMS7003;36546;50.516;30.826;2023-04-25T02:49:50;16.40;15.10;12.10
50587;PMS7003;36546;50.516;30.826;2023-04-25T02:50:53;16.30;15.40;13.00
50587;PMS7003;36546;50.516;30.826;2023-04-25T02:51:56;15.30;14.90;11.70
50587;PMS7003;36546;50.516;30.826;2023-04-25T02:52:59;15.00;14.82;11.64
50587;PMS7003;36546;50.516;30.826;2023-04-25T02:54:03;16.00;15.20;12.00
50587;PMS7003;36546;50.516;30.826;2023-04-25T02:55:06;15.20;14.20;10.70
50587;PMS7003;36546;50.516;30.826;2023-04-25T02:56:10;16.40;16.40;13.30
50587;PMS7003;36546;50.516;30.826;2023-04-25T02:57:13;15.18;11.91;8.27
50587;PMS7003;36546;50.516;30.826;2023-04-25T02:58:15;15.50;14.10;11.20
50587;PMS7003;36546;50.516;30.826;2023-04-25T02:59:19;15.10;14.00;11.10
50587;PMS7003;36546;50.516;30.826;2023-04-25T03:00:21;15.10;13.80;9.20
50587;PMS7003;36546;50.516;30.826;2023-04-25T03:01:24;14.90;14.70;11.30
50587;PMS7003;36546;50.516;30.826;2023-04-25T03:02:26;16.80;16.10;13.30
50587;PMS7003;36546;50.516;30.826;2023-04-25T03:03:30;15.40;15.20;12.20
50587;PMS7003;36546;50.516;30.826;2023-04-25T03:04:32;17.30;14.60;9.30
50587;PMS7003;36546;50.516;30.826;2023-04-25T03:05:35;15.91;15.91;12.64
50587;PMS7003;36546;50.516;30.826;2023-04-25T03:06:38;17.73;14.91;11.73
50587;PMS7003;36546;50.516;30.826;2023-04-25T03:07:40;14.00;12.60;9.90
50587;PMS7003;36546;50.516;30.826;2023-04-25T03:08:44;17.10;15.30;11.40
50587;PMS7003;36546;50.516;30.826;2023-04-25T03:09:47;17.90;16.00;12.50
50587;PMS7003;36546;50.516;30.826;2023-04-25T03:10:49;14.60;14.30;11.60
50587;PMS7003;36546;50.516;30.826;2023-04-25T03:11:51;12.90;12.30;9.70
50587;PMS7003;36546;50.516;30.826;2023-04-25T03:12:53;12.00;11.20;8.20
50587;PMS7003;36546;50.516;30.826;2023-04-25T03:13:56;14.80;14.00;11.20
50587;PMS7003;36546;50.516;30.826;2023-04-25T03:14:58;13.70;13.00;9.50
50587;PMS7003;36546;50.516;30.826;2023-04-25T03:16:01;18.30;16.50;12.70
50587;PMS7003;36546;50.516;30.826;2023-04-25T03:17:04;16.82;14.73;11.55
50587;PMS7003;36546;50.516;30.826;2023-04-25T03:18:08;17.30;15.70;11.60
50587;PMS7003;36546;50.516;30.826;2023-04-25T03:19:11;17.00;14.90;11.30
50587;PMS7003;36546;50.516;30.826;2023-04-25T03:20:14;17.80;14.90;11.10
50587;PMS7003;36546;50.516;30.826;2023-04-25T03:21:16;15.30;14.60;12.60
50587;PMS7003;36546;50.516;30.826;2023-04-25T03:22:18;15.20;15.20;12.60
50587;PMS7003;36546;50.516;30.826;2023-04-25T03:23:21;15.40;15.20;12.60
50587;PMS7003;36546;50.516;30.826;2023-04-25T03:24:25;18.30;18.30;12.40
50587;PMS7003;36546;50.516;30.826;2023-04-25T03:25:28;17.70;16.00;12.60
50587;PMS7003;36546;50.516;30.826;2023-04-25T03:26:30;17.40;15.00;11.90
50587;PMS7003;36546;50.516;30.826;2023-04-25T03:27:32;18.00;15.70;13.60
50587;PMS7003;36546;50.516;30.826;2023-04-25T03:28:35;15.45;14.18;10.09
50587;PMS7003;36546;50.516;30.826;2023-04-25T03:29:38;16.40;15.60;11.90
50587;PMS7003;36546;50.516;30.826;2023-04-25T03:30:41;16.80;15.20;11.90
50587;PMS7003;36546;50.516;30.826;2023-04-25T03:31:44;16.20;15.90;11.70
50587;PMS7003;36546;50.516;30.826;2023-04-25T03:32:46;15.80;14.80;11.50
50587;PMS7003;36546;50.516;30.826;2023-04-25T03:33:50;17.40;15.40;12.20
50587;PMS7003;36546;50.516;30.826;2023-04-25T03:34:55;19.10;16.60;13.10
50587;PMS7003;36546;50.516;30.826;2023-04-25T03:35:59;16.60;15.80;12.70
50587;PMS7003;36546;50.516;30.826;2023-04-25T03:37:02;16.55;15.73;11.82
50587;PMS7003;36546;50.516;30.826;2023-04-25T03:38:06;16.40;14.40;11.30
50587;PMS7003;36546;50.516;30.826;2023-04-25T03:39:10;17.80;16.80;12.60
50587;PMS7003;36546;50.516;30.826;2023-04-25T03:40:14;14.40;13.60;11.30
50587;PMS7003;36546;50.516;30.826;2023-04-25T03:41:22;14.60;14.30;10.60
50587;PMS7003;36546;50.516;30.826;2023-04-25T03:42:26;15.90;15.10;11.80
50587;PMS7003;36546;50.516;30.826;2023-04-25T03:43:29;15.10;15.10;11.90
50587;PMS7003;36546;50.516;30.826;2023-04-25T03:44:36;17.00;15.80;11.50
50587;PMS7003;36546;50.516;30.826;2023-04-25T03:45:39;17.30;15.80;11.90
50587;PMS7003;36546;50.516;30.826;2023-04-25T03:46:42;16.50;15.10;11.90
50587;PMS7003;36546;50.516;30.826;2023-04-25T03:47:45;18.60;15.40;10.60
50587;PMS7003;36546;50.516;30.826;2023-04-25T03:48:47;15.80;15.60;13.40
50587;PMS7003;36546;50.516;30.826;2023-04-25T03:49:52;20.80;18.90;14.30
50587;PMS7003;36546;50.516;30.826;2023-04-25T03:50:56;18.70;16.20;11.90
50587;PMS7003;36546;50.516;30.826;2023-04-25T03:51:59;20.00;15.50;11.80
50587;PMS7003;36546;50.516;30.826;2023-04-25T03:53:03;17.20;15.80;12.30
50587;PMS7003;36546;50.516;30.826;2023-04-25T03:54:07;16.70;15.60;13.20
50587;PMS7003;36546;50.516;30.826;2023-04-25T03:55:10;16.10;15.40;11.70
50587;PMS7003;36546;50.516;30.826;2023-04-25T03:56:14;16.70;15.90;12.80
50587;PMS7003;36546;50.516;30.826;2023-04-25T03:57:17;16.50;14.80;11.40
50587;PMS7003;36546;50.516;30.826;2023-04-25T03:58:20;18.50;18.10;13.30
50587;PMS7003;36546;50.516;30.826;2023-04-25T03:59:23;17.70;14.90;12.00
50587;PMS7003;36546;50.516;30.826;2023-04-25T04:00:25;17.70;16.20;11.70
50587;PMS7003;36546;50.516;30.826;2023-04-25T04:01:28;15.09;14.00;11.00
50587;PMS7003;36546;50.516;30.826;2023-04-25T04:02:31;17.82;15.82;12.91
50587;PMS7003;36546;50.516;30.826;2023-04-25T04:03:34;16.80;16.40;12.20
50587;PMS7003;36546;50.516;30.826;2023-04-25T04:04:38;18.10;17.00;12.30
50587;PMS7003;36546;50.516;30.826;2023-04-25T04:05:41;17.20;15.90;12.50
50587;PMS7003;36546;50.516;30.826;2023-04-25T04:06:44;16.30;15.30;11.80
50587;PMS7003;36546;50.516;30.826;2023-04-25T04:07:51;17.20;15.60;13.20
50587;PMS7003;36546;50.516;30.826;2023-04-25T04:08:54;15.10;13.70;9.60
50587;PMS7003;36546;50.516;30.826;2023-04-25T04:09:57;16.09;14.91;11.82
50587;PMS7003;36546;50.516;30.826;2023-04-25T04:11:00;19.20;18.40;13.10
50587;PMS7003;36546;50.516;30.826;2023-04-25T04:12:03;16.90;16.90;12.80
50587;PMS7003;36546;50.516;30.826;2023-04-25T04:13:07;17.40;16.00;13.00
50587;PMS7003;36546;50.516;30.826;2023-04-25T04:14:09;17.80;15.80;11.60
50587;PMS7003;36546;50.516;30.826;2023-04-25T04:15:14;17.00;15.70;12.60
50587;PMS7003;36546;50.516;30.826;2023-04-25T04:16:19;16.20;16.10;12.20
50587;PMS7003;36546;50.516;30.826;2023-04-25T04:17:22;21.00;16.50;13.10
50587;PMS7003;36546;50.516;30.826;2023-04-25T04:18:26;16.50;16.00;13.00
50587;PMS7003;36546;50.516;30.826;2023-04-25T04:19:31;15.80;15.10;12.00
50587;PMS7003;36546;50.516;30.826;2023-04-25T04:20:41;18.10;16.10;11.20
50587;PMS7003;36546;50.516;30.826;2023-04-25T04:21:44;17.90;16.50;13.00
50587;PMS7003;36546;50.516;30.826;2023-04-25T04:22:46;17.10;16.40;12.40
50587;PMS7003;36546;50.516;30.826;2023-04-25T04:23:49;17.50;16.10;12.90
50587;PMS7003;36546;50.516;30.826;2023-04-25T04:24:52;15.18;15.18;11.91
50587;PMS7003;36546;50.516;30.826;2023-04-25T04:25:56;16.40;16.40;12.70
50587;PMS7003;36546;50.516;30.826;2023-04-25T04:27:01;16.30;15.00;12.10
50587;PMS7003;36546;50.516;30.826;2023-04-25T04:28:08;17.40;14.80;11.30
50587;PMS7003;36546;50.516;30.826;2023-04-25T04:29:21;17.60;17.20;13.00
50587;PMS7003;36546;50.516;30.826;2023-04-25T04:30:25;17.70;16.70;12.90
50587;PMS7003;36546;50.516;30.826;2023-04-25T04:31:29;16.50;16.40;12.30
50587;PMS7003;36546;50.516;30.826;2023-04-25T04:32:32;18.30;16.00;12.00
50587;PMS7003;36546;50.516;30.826;2023-04-25T04:33:36;16.60;16.60;12.80
50587;PMS7003;36546;50.516;30.826;2023-04-25T04:34:40;17.50;16.50;12.00
50587;PMS7003;36546;50.516;30.826;2023-04-25T04:35:42;10.50;10.20;5.50
50587;PMS7003;36546;50.516;30.826;2023-04-25T04:36:45;18.55;16.64;12.64
50587;PMS7003;36546;50.516;30.826;2023-04-25T04:37:48;20.10;17.20;13.30
50587;PMS7003;36546;50.516;30.826;2023-04-25T04:38:52;16.90;16.90;13.40
50587;PMS7003;36546;50.516;30.826;2023-04-25T04:39:56;17.30;15.90;11.70
50587;PMS7003;36546;50.516;30.826;2023-04-25T04:41:03;17.90;14.90;12.30
50587;PMS7003;36546;50.516;30.826;2023-04-25T04:42:08;17.90;16.20;12.40
50587;PMS7003;36546;50.516;30.826;2023-04-25T04:43:17;19.40;18.90;13.50
50587;PMS7003;36546;50.516;30.826;2023-04-25T04:44:30;16.50;16.50;12.00
50587;PMS7003;36546;50.516;30.826;2023-04-25T04:45:50;15.80;15.80;12.40
50587;PMS7003;36546;50.516;30.826;2023-04-25T04:47:00;19.00;17.60;12.70
50587;PMS7003;36546;50.516;30.826;2023-04-25T04:48:11;19.50;17.30;12.70
50587;PMS7003;36546;50.516;30.826;2023-04-25T04:49:30;18.10;16.50;12.70
50587;PMS7003;36546;50.516;30.826;2023-04-25T04:50:35;11.30;11.10;8.20
50587;PMS7003;36546;50.516;30.826;2023-04-25T04:51:40;15.70;14.90;11.60
50587;PMS7003;36546;50.516;30.826;2023-04-25T04:52:50;15.90;14.80;12.10
50587;PMS7003;36546;50.516;30.826;2023-04-25T04:54:01;11.60;11.60;8.30
50587;PMS7003;36546;50.516;30.826;2023-04-25T04:55:23;15.30;15.00;12.80
50587;PMS7003;36546;50.516;30.826;2023-04-25T04:57:45;17.90;16.90;12.60
50587;PMS7003;36546;50.516;30.826;2023-04-25T04:58:55;15.30;14.80;10.80
50587;PMS7003;36546;50.516;30.826;2023-04-25T05:00:03;15.80;14.90;11.10
50587;PMS7003;36546;50.516;30.826;2023-04-25T05:01:11;16.90;16.50;12.40
50587;PMS7003;36546;50.516;30.826;2023-04-25T05:02:33;18.00;15.90;12.40
50587;PMS7003;36546;50.516;30.826;2023-04-25T05:03:38;15.50;15.10;11.90
50587;PMS7003;36546;50.516;30.826;2023-04-25T05:04:48;17.10;16.40;11.70
50587;PMS7003;36546;50.516;30.826;2023-04-25T05:06:10;18.00;14.90;11.30
50587;PMS7003;36546;50.516;30.826;2023-04-25T05:07:24;15.50;14.30;11.10
50587;PMS7003;36546;50.516;30.826;2023-04-25T05:08:36;16.90;15.40;12.50
50587;PMS7003;36546;50.516;30.826;2023-04-25T05:09:53;14.30;14.30;10.70
50587;PMS7003;36546;50.516;30.826;2023-04-25T05:11:14;16.50;14.80;11.60
50587;PMS7003;36546;50.516;30.826;2023-04-25T05:12:18;15.80;15.30;11.40
50587;PMS7003;36546;50.516;30.826;2023-04-25T05:13:23;16.50;15.60;12.00
50587;PMS7003;36546;50.516;30.826;2023-04-25T05:14:27;16.20;14.10;10.40
50587;PMS7003;36546;50.516;30.826;2023-04-25T05:15:40;15.10;13.70;11.10
50587;PMS7003;36546;50.516;30.826;2023-04-25T05:16:48;14.40;14.40;10.70
50587;PMS7003;36546;50.516;30.826;2023-04-25T05:17:59;14.20;13.10;10.10
50587;PMS7003;36546;50.516;30.826;2023-04-25T05:19:09;14.00;12.60;10.50
50587;PMS7003;36546;50.516;30.826;2023-04-25T05:20:19;15.90;15.60;11.40
50587;PMS7003;36546;50.516;30.826;2023-04-25T05:21:36;14.00;13.50;10.20
50587;PMS7003;36546;50.516;30.826;2023-04-25T05:22:43;14.10;12.50;10.10
50587;PMS7003;36546;50.516;30.826;2023-04-25T05:23:47;14.00;13.20;10.30
50587;PMS7003;36546;50.516;30.826;2023-04-25T05:25:08;13.60;13.10;9.70
50587;PMS7003;36546;50.516;30.826;2023-04-25T05:26:16;13.80;12.60;10.60
50587;PMS7003;36546;50.516;30.826;2023-04-25T05:27:35;10.70;10.00;7.60
50587;PMS7003;36546;50.516;30.826;2023-04-25T05:28:42;13.80;12.30;9.90
50587;PMS7003;36546;50.516;30.826;2023-04-25T05:30:03;11.10;10.40;8.60
50587;PMS7003;36546;50.516;30.826;2023-04-25T05:31:20;12.20;12.20;10.20
50587;PMS7003;36546;50.516;30.826;2023-04-25T05:32:36;14.70;14.00;10.70
50587;PMS7003;36546;50.516;30.826;2023-04-25T05:33:38;13.80;13.30;9.70
50587;PMS7003;36546;50.516;30.826;2023-04-25T05:34:42;12.10;12.10;9.50
50587;PMS7003;36546;50.516;30.826;2023-04-25T05:35:46;13.00;11.50;9.20
50587;PMS7003;36546;50.516;30.826;2023-04-25T05:36:50;13.10;11.70;9.90
50587;PMS7003;36546;50.516;30.826;2023-04-25T05:39:16;11.40;10.80;9.10
50587;PMS7003;36546;50.516;30.826;2023-04-25T05:40:38;12.90;11.90;9.10
50587;PMS7003;36546;50.516;30.826;2023-04-25T05:41:42;11.80;11.80;8.90
50587;PMS7003;36546;50.516;30.826;2023-04-25T05:42:49;14.20;12.40;10.00
50587;PMS7003;36546;50.516;30.826;2023-04-25T05:43:57;11.60;11.10;8.90
50587;PMS7003;36546;50.516;30.826;2023-04-25T05:45:17;12.30;10.30;8.80
50587;PMS7003;36546;50.516;30.826;2023-04-25T05:46:36;13.00;11.40;9.60
50587;PMS7003;36546;50.516;30.826;2023-04-25T05:47:46;15.00;13.60;10.80
50587;PMS7003;36546;50.516;30.826;2023-04-25T05:48:50;11.00;11.00;8.60
50587;PMS7003;36546;50.516;30.826;2023-04-25T05:49:54;13.20;12.20;9.90
50587;PMS7003;36546;50.516;30.826;2023-04-25T05:50:59;11.90;11.90;9.30
50587;PMS7003;36546;50.516;30.826;2023-04-25T05:52:21;12.20;12.20;9.40
50587;PMS7003;36546;50.516;30.826;2023-04-25T05:53:35;11.50;11.50;9.00
50587;PMS7003;36546;50.516;30.826;2023-04-25T05:54:37;14.09;12.91;10.00
50587;PMS7003;36546;50.516;30.826;2023-04-25T05:55:40;15.20;12.10;9.40
50587;PMS7003;36546;50.516;30.826;2023-04-25T05:56:56;12.00;11.60;9.80
50587;PMS7003;36546;50.516;30.826;2023-04-25T05:58:01;13.50;12.50;9.00
50587;PMS7003;36546;50.516;30.826;2023-04-25T05:59:17;15.80;13.50;10.60
50587;PMS7003;36546;50.516;30.826;2023-04-25T06:00:20;14.91;13.00;10.55
50587;PMS7003;36546;50.516;30.826;2023-04-25T06:01:24;11.20;11.10;9.40
50587;PMS7003;36546;50.516;30.826;2023-04-25T06:02:26;12.40;12.40;9.40
50587;PMS7003;36546;50.516;30.826;2023-04-25T06:03:29;12.60;11.90;9.10